createdAt,value
2022-12-03T00:02:04.410Z,88.85
2022-12-03T00:04:36.877Z,84.18
2022-12-03T00:07:03.382Z,96.10
2022-12-03T00:09:30.022Z,81.38
2022-12-03T00:11:56.482Z,90.70
2022-12-03T00:14:24.414Z,91.22
2022-12-03T00:16:52.904Z,73.70
2022-12-03T00:19:19.508Z,86.35
2022-12-03T00:21:45.947Z,79.95
2022-12-03T00:24:12.433Z,86.00
2022-12-03T00:26:41.204Z,92.93
2022-12-03T00:29:07.761Z,83.00
2022-12-03T00:31:34.337Z,85.30
2022-12-03T00:34:01.366Z,81.05
2022-12-03T00:36:30.500Z,79.07
2022-12-03T00:39:00.181Z,82.50
2022-12-03T00:41:26.636Z,76.65
2022-12-03T00:43:57.339Z,93.20
2022-12-03T00:46:24.948Z,96.88
2022-12-03T00:48:51.602Z,95.05
2022-12-03T00:51:21.633Z,89.10
2022-12-03T00:53:48.161Z,88.43
2022-12-03T00:56:18.129Z,89.93
2022-12-03T00:58:47.390Z,103.30
2022-12-03T01:01:14.068Z,89.80
2022-12-03T01:03:40.607Z,100.05
2022-12-03T01:06:07.230Z,94.40
2022-12-03T01:08:36.430Z,94.32
2022-12-03T01:11:26.484Z,85.70
2022-12-03T01:13:55.989Z,93.03
2022-12-03T01:16:25.828Z,94.03
2022-12-03T01:18:52.848Z,107.40
2022-12-03T01:21:19.752Z,101.95
2022-12-03T01:23:46.898Z,96.85
2022-12-03T01:26:13.544Z,106.40
2022-12-03T01:28:41.908Z,93.53
2022-12-03T01:31:27.630Z,106.72
2022-12-03T01:33:54.219Z,98.57
2022-12-03T01:36:20.766Z,105.00
2022-12-03T01:38:48.652Z,98.05
2022-12-03T01:41:21.010Z,112.28
2022-12-03T01:43:48.760Z,93.20
2022-12-03T01:46:19.913Z,107.25
2022-12-03T01:48:48.320Z,103.97
2022-12-03T01:51:15.557Z,104.10
2022-12-03T01:53:48.724Z,107.22
2022-12-03T01:56:16.892Z,106.60
2022-12-03T01:58:44.745Z,104.93
2022-12-03T02:01:14.978Z,105.00
2022-12-03T02:03:42.184Z,122.50
2022-12-03T02:06:16.153Z,108.75
2022-12-03T02:08:42.785Z,118.00
2022-12-03T02:11:18.343Z,117.47
2022-12-03T02:13:46.045Z,126.47
2022-12-03T02:16:12.637Z,112.88
2022-12-03T02:18:39.304Z,124.03
2022-12-03T02:21:16.758Z,123.78
2022-12-03T02:24:08.004Z,123.00
2022-12-03T02:26:34.555Z,127.33
2022-12-03T02:29:02.432Z,119.43
2022-12-03T02:31:29.071Z,127.53
2022-12-03T02:33:58.701Z,136.38
2022-12-03T02:36:25.469Z,110.82
2022-12-03T02:38:52.098Z,126.40
2022-12-03T02:41:39.984Z,141.77
2022-12-03T02:44:07.979Z,114.72
2022-12-03T02:46:35.159Z,104.97
2022-12-03T02:49:06.563Z,121.70
2022-12-03T02:51:34.548Z,133.68
2022-12-03T02:54:01.883Z,134.60
2022-12-03T02:56:32.503Z,135.52
2022-12-03T02:59:03.154Z,110.50
2022-12-03T03:01:30.047Z,145.10
2022-12-03T03:03:57.038Z,133.00
2022-12-03T03:06:23.680Z,128.40
2022-12-03T03:08:50.320Z,125.85
2022-12-03T03:11:18.606Z,124.47
2022-12-03T03:13:47.798Z,116.20
2022-12-03T03:16:14.565Z,127.38
2022-12-03T03:18:42.015Z,119.20
2022-12-03T03:21:08.672Z,115.90
2022-12-03T03:23:38.357Z,119.30
2022-12-03T03:26:09.342Z,123.68
2022-12-03T03:28:39.252Z,110.70
2022-12-03T03:31:08.291Z,104.38
2022-12-03T03:33:35.245Z,112.53
2022-12-03T03:36:02.429Z,122.35
2022-12-03T03:38:30.317Z,116.70
2022-12-03T03:40:59.777Z,121.22
2022-12-03T03:43:26.560Z,109.53
2022-12-03T03:45:53.927Z,107.20
2022-12-03T03:48:21.506Z,117.82
2022-12-03T03:50:56.173Z,118.93
2022-12-03T03:53:24.446Z,125.70
2022-12-03T03:55:51.430Z,142.80
2022-12-03T03:58:18.056Z,142.15
2022-12-03T04:00:45.302Z,108.30
2022-12-03T04:03:12.661Z,117.82
2022-12-03T04:05:39.853Z,124.20
2022-12-03T04:08:06.470Z,110.07
2022-12-03T04:10:56.139Z,117.90
2022-12-03T04:13:22.859Z,102.82
2022-12-03T04:15:49.812Z,106.22
2022-12-03T04:18:52.168Z,119.63
2022-12-03T04:21:39.505Z,94.40
2022-12-03T04:24:07.945Z,86.25
2022-12-03T04:26:52.941Z,88.22
2022-12-03T04:29:20.839Z,94.35
2022-12-03T04:32:06.545Z,97.22
2022-12-03T04:34:51.856Z,95.50
2022-12-03T04:37:18.931Z,93.10
2022-12-03T04:39:45.500Z,97.03
2022-12-03T04:42:14.753Z,89.43
2022-12-03T04:44:41.308Z,78.97
2022-12-03T04:47:09.508Z,79.43
2022-12-03T04:49:40.430Z,70.65
2022-12-03T04:52:07.728Z,68.03
2022-12-03T04:54:34.529Z,64.38
2022-12-03T04:57:01.544Z,69.93
2022-12-03T04:59:28.056Z,67.68
2022-12-03T05:01:54.766Z,70.43
2022-12-03T05:04:21.370Z,59.70
2022-12-03T05:06:47.951Z,64.70
2022-12-03T05:09:17.807Z,70.32
2022-12-03T05:11:50.262Z,61.63
2022-12-03T05:14:16.799Z,57.88
2022-12-03T05:16:43.392Z,65.43
2022-12-03T05:19:10.113Z,62.55
2022-12-03T05:21:36.611Z,58.78
2022-12-03T05:24:03.633Z,56.50
2022-12-03T05:26:30.258Z,64.65
2022-12-03T05:28:56.753Z,50.85
2022-12-03T05:31:23.348Z,61.45
2022-12-03T05:33:49.994Z,52.08
2022-12-03T05:36:16.463Z,52.85
2022-12-03T05:38:43.003Z,51.85
2022-12-03T05:41:28.030Z,53.35
2022-12-03T05:43:54.726Z,57.33
2022-12-03T05:46:21.342Z,58.42
2022-12-03T05:48:47.983Z,54.67
2022-12-03T05:51:14.492Z,54.40
2022-12-03T05:53:41.565Z,58.15
2022-12-03T05:56:08.142Z,55.10
2022-12-03T05:58:34.860Z,56.75
2022-12-03T06:01:01.323Z,60.45
2022-12-03T06:03:28.193Z,59.85
2022-12-03T06:05:54.806Z,56.60
2022-12-03T06:08:24.584Z,58.58
2022-12-03T06:11:00.307Z,52.20
2022-12-03T06:13:26.821Z,49.95
2022-12-03T06:15:53.370Z,62.42
2022-12-03T06:18:19.890Z,55.35
2022-12-03T06:20:46.402Z,52.88
2022-12-03T06:23:12.891Z,62.95
2022-12-03T06:25:39.452Z,63.58
2022-12-03T06:28:07.285Z,65.88
2022-12-03T06:30:35.315Z,61.53
2022-12-03T06:33:02.138Z,60.40
2022-12-03T06:35:31.377Z,61.67
2022-12-03T06:37:57.914Z,67.72
2022-12-03T06:40:26.314Z,64.88
2022-12-03T06:42:53.090Z,64.57
2022-12-03T06:45:19.745Z,62.38
2022-12-03T06:47:46.475Z,65.60
2022-12-03T06:50:13.813Z,72.03
2022-12-03T06:52:40.434Z,64.55
2022-12-03T06:55:07.726Z,68.78
2022-12-03T06:57:34.313Z,72.72
2022-12-03T07:00:00.791Z,68.63
2022-12-03T07:02:27.359Z,59.08
2022-12-03T07:04:54.172Z,59.95
2022-12-03T07:07:26.903Z,56.72
2022-12-03T07:09:56.764Z,57.53
2022-12-03T07:12:23.242Z,59.70
2022-12-03T07:14:49.719Z,64.82
2022-12-03T07:17:18.626Z,60.22
2022-12-03T07:19:45.093Z,70.80
2022-12-03T07:22:11.871Z,68.03
2022-12-03T07:24:38.507Z,65.93
2022-12-03T07:27:04.985Z,67.93
2022-12-03T07:29:31.468Z,65.05
2022-12-03T07:31:57.940Z,56.70
2022-12-03T07:34:39.671Z,64.75
2022-12-03T07:37:06.127Z,72.70
2022-12-03T07:39:32.749Z,61.20
2022-12-03T07:41:59.966Z,62.38
2022-12-03T07:44:26.568Z,67.30
2022-12-03T07:46:53.073Z,68.97
2022-12-03T07:49:19.679Z,65.50
2022-12-03T07:51:53.741Z,73.68
2022-12-03T07:54:23.819Z,68.47
2022-12-03T07:56:50.467Z,67.03
2022-12-03T07:59:17.434Z,67.88
2022-12-03T08:01:47.121Z,63.72
2022-12-03T08:04:14.843Z,68.18
2022-12-03T08:06:41.638Z,63.08
2022-12-03T08:09:09.969Z,69.07
2022-12-03T08:11:45.146Z,72.50
2022-12-03T08:14:13.802Z,66.90
2022-12-03T08:16:42.815Z,74.22
2022-12-03T08:19:16.557Z,69.50
2022-12-03T08:21:43.197Z,65.97
2022-12-03T08:24:20.690Z,85.78
2022-12-03T08:26:48.949Z,79.63
2022-12-03T08:29:18.471Z,74.07
2022-12-03T08:31:57.213Z,80.53
2022-12-03T08:34:27.566Z,82.53
2022-12-03T08:37:06.055Z,81.47
2022-12-03T08:39:34.942Z,82.03
2022-12-03T08:42:23.208Z,83.80
2022-12-03T08:44:49.682Z,79.68
2022-12-03T08:47:24.122Z,79.05
2022-12-03T08:50:00.282Z,82.57
2022-12-03T08:52:35.889Z,85.50
2022-12-03T08:55:38.868Z,86.93
2022-12-03T08:58:41.868Z,82.13
2022-12-03T09:01:11.514Z,80.00
2022-12-03T09:03:41.048Z,89.20
2022-12-03T09:06:07.942Z,84.72
2022-12-03T09:08:34.404Z,81.78
2022-12-03T09:11:01.414Z,89.40
2022-12-03T09:13:27.906Z,90.00
2022-12-03T09:15:54.399Z,89.07
2022-12-03T09:18:20.961Z,80.57
2022-12-03T09:20:47.423Z,79.55
2022-12-03T09:23:14.412Z,72.18
2022-12-03T09:25:40.943Z,83.75
2022-12-03T09:28:07.435Z,85.32
2022-12-03T09:30:33.927Z,89.68
2022-12-03T09:33:00.501Z,93.43
2022-12-03T09:35:33.644Z,89.75
2022-12-03T09:38:00.178Z,92.15
2022-12-03T09:40:26.672Z,93.10
2022-12-03T09:42:58.536Z,92.57
2022-12-03T09:48:01.875Z,103.35
2022-12-03T09:50:28.881Z,103.90
2022-12-03T09:52:59.306Z,103.53
2022-12-03T09:55:27.806Z,112.90
2022-12-03T09:57:57.785Z,102.30
2022-12-03T10:00:31.024Z,110.72
2022-12-03T10:03:02.308Z,114.50
2022-12-03T10:05:29.422Z,104.28
2022-12-03T10:08:03.762Z,110.53
2022-12-03T10:10:30.530Z,113.20
2022-12-03T10:12:57.129Z,98.68
2022-12-03T10:15:23.951Z,105.90
2022-12-03T10:17:54.474Z,119.22
2022-12-03T10:20:22.768Z,112.50
2022-12-03T10:22:49.749Z,120.50
2022-12-03T10:25:19.454Z,107.05
2022-12-03T10:27:59.357Z,112.30
2022-12-03T10:30:28.518Z,114.97
2022-12-03T10:32:58.012Z,112.15
2022-12-03T10:35:25.897Z,121.78
2022-12-03T10:38:06.813Z,121.45
2022-12-03T10:40:35.766Z,120.05
2022-12-03T10:43:22.919Z,122.25
2022-12-03T10:46:03.722Z,129.60
2022-12-03T10:48:31.389Z,124.35
2022-12-03T10:51:05.098Z,117.38
2022-12-03T10:53:37.136Z,122.90
2022-12-03T10:56:06.662Z,121.55
2022-12-03T10:58:38.593Z,103.38
2022-12-03T11:01:19.168Z,131.35
2022-12-03T11:03:47.830Z,128.93
2022-12-03T11:06:17.442Z,125.20
2022-12-03T11:08:49.260Z,133.90
2022-12-03T11:11:21.008Z,130.88
2022-12-03T11:13:51.538Z,129.32
2022-12-03T11:16:53.368Z,128.00
2022-12-03T11:19:39.752Z,129.65
2022-12-03T11:22:06.199Z,123.82
2022-12-03T11:24:35.329Z,134.52
2022-12-03T11:27:01.790Z,125.47
2022-12-03T11:29:46.200Z,127.18
2022-12-03T11:32:35.152Z,124.93
2022-12-03T11:35:01.653Z,133.73
2022-12-03T11:37:30.087Z,122.15
2022-12-03T11:40:24.781Z,120.35
2022-12-03T11:42:51.804Z,118.00
2022-12-03T11:45:35.138Z,118.65
2022-12-03T11:48:10.609Z,125.18
2022-12-03T11:50:53.939Z,124.82
2022-12-03T11:53:26.184Z,124.18
2022-12-03T11:56:08.941Z,124.78
2022-12-03T11:58:38.292Z,131.95
2022-12-03T12:01:07.432Z,134.93
2022-12-03T12:03:54.348Z,127.75
2022-12-03T12:06:23.952Z,122.03
2022-12-03T12:08:59.676Z,125.22
2022-12-03T12:11:31.703Z,126.97
2022-12-03T12:14:12.802Z,120.78
2022-12-03T12:16:51.366Z,125.13
2022-12-03T12:20:10.773Z,129.75
2022-12-03T12:22:37.279Z,120.28
2022-12-03T12:25:06.336Z,128.23
2022-12-03T12:27:45.064Z,124.30
2022-12-03T12:30:17.564Z,117.60
2022-12-03T12:33:07.698Z,134.52
2022-12-03T12:35:34.328Z,128.30
2022-12-03T12:38:10.781Z,132.45
2022-12-03T12:40:40.110Z,135.15
2022-12-03T12:43:32.123Z,131.18
2022-12-03T12:46:45.570Z,118.18
2022-12-03T12:49:00.005Z,129.15
2022-12-03T12:51:26.765Z,134.50
2022-12-03T12:53:53.815Z,132.55
2022-12-03T12:56:30.258Z,140.30
2022-12-03T12:59:01.058Z,128.18
2022-12-03T13:01:32.012Z,140.43
2022-12-03T13:03:59.532Z,128.35
2022-12-03T13:06:29.125Z,110.40
2022-12-03T13:08:57.077Z,133.93
2022-12-03T13:11:41.338Z,128.93
2022-12-03T13:14:34.117Z,133.40
2022-12-03T13:17:07.719Z,140.35
2022-12-03T13:19:47.355Z,124.75
2022-12-03T13:22:20.090Z,134.07
2022-12-03T13:24:50.640Z,121.30
2022-12-03T13:27:17.103Z,138.13
2022-12-03T13:29:45.169Z,140.70
2022-12-03T13:32:16.582Z,130.80
2022-12-03T13:34:44.561Z,127.82
2022-12-03T13:37:26.913Z,130.85
2022-12-03T13:39:58.458Z,129.75
2022-12-03T13:42:39.328Z,138.45
2022-12-03T13:45:14.945Z,132.68
2022-12-03T13:47:46.632Z,146.07
2022-12-03T13:50:25.109Z,133.70
2022-12-03T13:52:52.932Z,145.50
2022-12-03T13:55:29.895Z,139.80
2022-12-03T13:57:57.371Z,140.32
2022-12-03T14:00:24.319Z,141.40
2022-12-03T14:02:54.292Z,144.70
2022-12-03T14:05:21.265Z,138.98
2022-12-03T14:07:47.816Z,132.30
2022-12-03T14:10:14.442Z,145.77
2022-12-03T14:12:40.924Z,139.02
2022-12-03T14:15:09.105Z,139.25
2022-12-03T14:17:35.614Z,148.77
2022-12-03T14:20:03.830Z,151.07
2022-12-03T14:22:30.883Z,148.35
2022-12-03T14:24:57.861Z,146.55
2022-12-03T14:27:24.855Z,154.40
2022-12-03T14:29:52.100Z,151.75
2022-12-03T14:32:19.140Z,159.77
2022-12-03T14:34:45.838Z,150.93
2022-12-03T14:37:12.437Z,141.60
2022-12-03T14:39:41.822Z,143.43
2022-12-03T14:42:14.297Z,153.77
2022-12-03T14:44:51.524Z,140.70
2022-12-03T14:47:22.238Z,146.50
2022-12-03T14:49:50.427Z,122.07
2022-12-03T14:52:17.532Z,147.73
2022-12-03T14:54:45.823Z,138.93
2022-12-03T14:57:14.734Z,144.38
2022-12-03T14:59:42.597Z,149.95
2022-12-03T15:02:10.761Z,150.18
2022-12-03T15:04:39.997Z,152.60
2022-12-03T15:07:07.086Z,148.90
2022-12-03T15:09:33.716Z,149.45
2022-12-03T15:12:00.834Z,149.85
2022-12-03T15:14:27.763Z,137.00
2022-12-03T15:16:54.393Z,149.45
2022-12-03T15:19:23.378Z,143.75
2022-12-03T15:21:55.939Z,152.20
2022-12-03T15:24:22.421Z,146.93
2022-12-03T15:26:49.600Z,137.38
2022-12-03T15:29:16.120Z,144.93
2022-12-03T15:31:42.687Z,146.45
2022-12-03T15:34:09.387Z,136.85
2022-12-03T15:36:36.382Z,149.88
2022-12-03T15:39:04.106Z,135.20
2022-12-03T15:41:33.852Z,140.07
2022-12-03T15:44:02.233Z,146.68
2022-12-03T15:46:34.092Z,156.15
2022-12-03T15:51:30.262Z,137.80
2022-12-03T15:53:56.751Z,151.80
2022-12-03T15:56:23.235Z,162.85
2022-12-03T15:58:49.750Z,147.43
2022-12-03T16:01:19.483Z,144.73
2022-12-03T16:03:46.127Z,138.73
2022-12-03T16:06:12.928Z,145.25
2022-12-03T16:08:39.430Z,150.25
2022-12-03T16:11:08.839Z,147.32
2022-12-03T16:13:37.539Z,152.20
2022-12-03T16:16:07.117Z,150.40
2022-12-03T16:18:33.579Z,148.82
2022-12-03T16:21:03.396Z,144.45
2022-12-03T16:23:30.360Z,150.95
2022-12-03T16:25:56.960Z,155.10
2022-12-03T16:28:26.572Z,150.27
2022-12-03T16:30:53.556Z,149.27
2022-12-03T16:33:27.017Z,148.70
2022-12-03T16:35:54.239Z,143.18
2022-12-03T16:38:20.746Z,144.85
2022-12-03T16:40:48.466Z,141.65
2022-12-03T16:43:14.952Z,142.75
2022-12-03T16:45:56.184Z,147.63
2022-12-03T16:48:26.279Z,144.50
2022-12-03T16:50:53.265Z,142.77
2022-12-03T16:53:19.781Z,137.18
2022-12-03T16:55:46.233Z,143.60
2022-12-03T16:58:17.274Z,145.50
2022-12-03T17:00:43.737Z,143.73
2022-12-03T17:03:10.325Z,147.02
2022-12-03T17:05:40.404Z,164.55
2022-12-03T17:08:06.968Z,141.02
2022-12-03T17:10:33.562Z,141.32
2022-12-03T17:13:15.277Z,158.32
2022-12-03T17:15:41.834Z,144.80
2022-12-03T17:18:09.038Z,152.98
2022-12-03T17:20:36.331Z,135.38
2022-12-03T17:23:03.558Z,146.75
2022-12-03T17:25:31.266Z,144.02
2022-12-03T17:27:57.872Z,136.13
2022-12-03T17:30:24.408Z,160.65
2022-12-03T17:32:51.991Z,131.48
2022-12-03T17:35:20.485Z,149.75
2022-12-03T17:37:50.050Z,147.90
2022-12-03T17:40:17.560Z,137.02
2022-12-03T17:42:46.062Z,134.52
2022-12-03T17:45:13.034Z,141.10
2022-12-03T17:47:39.947Z,142.75
2022-12-03T17:50:08.101Z,147.80
2022-12-03T17:52:34.782Z,154.32
2022-12-03T17:55:12.169Z,149.20
2022-12-03T17:57:43.856Z,150.10
2022-12-03T18:00:11.009Z,156.68
2022-12-03T18:02:37.484Z,135.25
2022-12-03T18:05:04.329Z,146.15
2022-12-03T18:07:33.897Z,168.38
2022-12-03T18:10:00.554Z,181.52
2022-12-03T18:12:27.194Z,150.77
2022-12-03T18:14:56.424Z,162.77
2022-12-03T18:17:25.592Z,182.90
2022-12-03T18:19:52.483Z,151.25
2022-12-03T18:22:19.375Z,170.27
2022-12-03T18:24:50.242Z,162.50
2022-12-03T18:27:18.516Z,156.25
2022-12-03T18:29:44.993Z,155.25
2022-12-03T18:32:27.046Z,143.20
2022-12-03T18:34:54.780Z,156.40
2022-12-03T18:37:21.984Z,140.05
2022-12-03T18:39:48.618Z,148.27
2022-12-03T18:42:21.881Z,142.10
2022-12-03T18:44:51.133Z,146.05
2022-12-03T18:47:20.656Z,145.88
2022-12-03T18:49:47.894Z,153.65
2022-12-03T18:52:23.287Z,140.38
2022-12-03T18:54:49.826Z,132.27
2022-12-03T18:57:16.415Z,145.52
2022-12-03T18:59:42.925Z,149.05
2022-12-03T19:05:11.701Z,131.57
2022-12-03T19:07:43.170Z,133.05
2022-12-03T19:10:10.904Z,135.32
2022-12-03T19:12:37.903Z,123.50
2022-12-03T19:15:05.936Z,127.18
2022-12-03T19:17:38.095Z,136.85
2022-12-03T19:20:05.280Z,135.18
2022-12-03T19:22:33.193Z,121.75
2022-12-03T19:24:59.875Z,132.57
2022-12-03T19:27:26.405Z,133.13
2022-12-03T19:29:53.139Z,141.65
2022-12-03T19:32:19.861Z,122.80
2022-12-03T19:34:46.459Z,127.90
2022-12-03T19:37:13.161Z,132.35
2022-12-03T19:39:39.648Z,133.70
2022-12-03T19:42:06.158Z,126.13
2022-12-03T19:44:33.097Z,125.63
2022-12-03T19:46:59.695Z,119.60
2022-12-03T19:49:26.495Z,124.18
2022-12-03T19:51:53.254Z,132.15
2022-12-03T19:54:19.834Z,131.13
2022-12-03T19:56:46.427Z,122.05
2022-12-03T19:59:14.146Z,120.78
2022-12-03T20:01:43.076Z,122.72
2022-12-03T20:04:12.341Z,127.10
2022-12-03T20:06:39.195Z,115.32
2022-12-03T20:09:09.300Z,119.88
2022-12-03T20:11:35.916Z,123.10
2022-12-03T20:14:08.374Z,128.82
2022-12-03T20:16:35.045Z,118.32
2022-12-03T20:19:04.335Z,126.82
2022-12-03T20:21:33.241Z,131.70
2022-12-03T20:24:00.087Z,124.50
2022-12-03T20:26:28.536Z,124.43
2022-12-03T20:28:56.477Z,125.57
2022-12-03T20:31:25.815Z,116.32
2022-12-03T20:33:56.235Z,114.88
2022-12-03T20:36:23.293Z,113.88
2022-12-03T20:38:56.974Z,117.28
2022-12-03T20:41:23.980Z,114.82
2022-12-03T20:43:51.301Z,115.18
2022-12-03T20:46:30.063Z,113.50
2022-12-03T20:48:57.537Z,102.65
2022-12-03T20:51:31.039Z,111.03
2022-12-03T20:53:59.576Z,111.53
2022-12-03T20:56:31.297Z,105.93
2022-12-03T21:01:28.981Z,104.38
2022-12-03T21:03:56.803Z,117.13
2022-12-03T21:06:25.862Z,108.40
2022-12-03T21:08:54.336Z,115.65
2022-12-03T21:11:24.206Z,116.43
2022-12-03T21:13:50.935Z,118.80
2022-12-03T21:16:45.674Z,109.15
2022-12-03T21:19:09.778Z,112.32
2022-12-03T21:21:36.374Z,119.18
2022-12-03T21:24:02.925Z,106.57
2022-12-03T21:26:29.538Z,113.85
2022-12-03T21:28:56.096Z,119.32
2022-12-03T21:31:28.858Z,110.28
2022-12-03T21:33:56.633Z,103.32
2022-12-03T21:36:25.253Z,100.82
2022-12-03T21:38:52.044Z,101.65
2022-12-03T21:41:22.275Z,101.90
2022-12-03T21:43:48.758Z,97.90
2022-12-03T21:47:12.753Z,101.15
2022-12-03T21:49:03.941Z,113.78
2022-12-03T21:51:30.738Z,104.93
2022-12-03T21:53:57.338Z,97.72
2022-12-03T21:56:23.912Z,111.90
2022-12-03T21:58:50.395Z,97.55
2022-12-03T22:01:20.288Z,96.70
2022-12-03T22:03:47.537Z,84.57
2022-12-03T22:06:14.951Z,108.38
2022-12-03T22:08:41.922Z,94.40
2022-12-03T22:11:13.744Z,104.38
2022-12-03T22:16:13.818Z,106.45
2022-12-03T22:18:40.834Z,105.97
2022-12-03T22:21:12.775Z,89.28
2022-12-03T22:23:39.616Z,112.45
2022-12-03T22:26:11.491Z,110.72
2022-12-03T22:31:08.769Z,114.03
2022-12-03T22:33:36.386Z,117.28
2022-12-03T22:36:08.455Z,131.95
2022-12-03T22:38:35.011Z,119.38
2022-12-03T22:41:06.220Z,127.55
2022-12-03T22:43:33.293Z,129.55
2022-12-03T22:46:00.114Z,128.63
2022-12-03T22:48:26.733Z,167.95
2022-12-03T22:50:53.313Z,123.28
2022-12-03T22:53:20.357Z,184.95
2022-12-03T22:55:58.257Z,184.70
2022-12-03T22:58:26.291Z,230.40
2022-12-03T23:00:54.560Z,288.48
2022-12-03T23:03:23.493Z,187.20
2022-12-03T23:05:50.038Z,258.73
2022-12-03T23:08:19.390Z,172.05
2022-12-03T23:10:50.850Z,356.73
2022-12-03T23:13:17.784Z,515.70
2022-12-03T23:15:49.700Z,394.73
2022-12-03T23:18:17.452Z,294.95
2022-12-03T23:20:52.967Z,318.42
2022-12-03T23:23:20.991Z,262.38
2022-12-03T23:25:57.528Z,201.18
2022-12-03T23:28:27.287Z,202.57
2022-12-03T23:30:54.252Z,358.95
2022-12-03T23:33:20.910Z,283.13
2022-12-03T23:35:47.492Z,158.82
2022-12-03T23:38:14.476Z,416.23
2022-12-03T23:40:47.740Z,229.90
2022-12-03T23:43:17.458Z,406.77
2022-12-03T23:45:43.954Z,243.43
2022-12-03T23:48:10.661Z,489.20
2022-12-03T23:50:41.212Z,462.65
2022-12-03T23:53:07.782Z,362.48
2022-12-03T23:55:34.279Z,170.52
2022-12-03T23:58:00.814Z,286.42
